Time;durP1;ratioP1;P1;durP2;ratioP2;P2;SDS_P1;SDS_P2;PMS_P1;PMS_P2;Temp;Humidity;BMP_temperature;BMP_pressure;BME280_temperature;BME280_humidity;BME280_pressure;Samples;Min_cycle;Max_cycle;Signal;HPM_P1;HPM_P2
2022/03/21 00:00:59;;;;;;;48.40;22.40;;;;;;;;;;5100789;27;20023;-45
2022/03/21 00:03:28;;;;;;;42.20;20.98;;;;;;;;;;5107720;27;20036;-47
2022/03/21 00:05:55;;;;;;;48.58;19.73;;;;;;;;;;5112678;27;20475;-45
2022/03/21 00:08:22;;;;;;;47.42;20.85;;;;;;;;;;5109645;27;20052;-45
2022/03/21 00:10:49;;;;;;;45.45;21.15;;;;;;;;;;5103338;28;20028;-47
2022/03/21 00:13:15;;;;;;;52.85;23.35;;;;;;;;;;5110052;27;20417;-47
2022/03/21 00:15:45;;;;;;;35.67;17.30;;;;;;;;;;5108784;28;20032;-46
2022/03/21 00:18:14;;;;;;;35.00;17.58;;;;;;;;;;5103250;28;20464;-47
2022/03/21 00:20:41;;;;;;;54.30;24.15;;;;;;;;;;5101162;28;20067;-47
2022/03/21 00:23:08;;;;;;;32.65;17.40;;;;;;;;;;5109412;27;20023;-46
2022/03/21 00:25:36;;;;;;;44.95;18.30;;;;;;;;;;5112133;27;20152;-46
2022/03/21 00:28:02;;;;;;;52.30;23.75;;;;;;;;;;5108822;27;20622;-46
2022/03/21 00:30:29;;;;;;;47.15;20.92;;;;;;;;;;5110607;27;20019;-45
2022/03/21 00:32:55;;;;;;;42.47;20.65;;;;;;;;;;5112126;27;20032;-47
2022/03/21 00:35:22;;;;;;;53.42;24.75;;;;;;;;;;5106352;28;20020;-46
2022/03/21 00:37:50;;;;;;;73.28;33.63;;;;;;;;;;5086155;28;20094;-46
2022/03/21 00:40:18;;;;;;;44.75;22.88;;;;;;;;;;5088284;28;20115;-45
2022/03/21 00:42:45;;;;;;;37.70;18.88;;;;;;;;;;5095093;28;20028;-46
2022/03/21 00:45:12;;;;;;;40.92;19.35;;;;;;;;;;5115539;27;20084;-46
2022/03/21 00:47:39;;;;;;;37.97;18.05;;;;;;;;;;5112187;27;20027;-46
2022/03/21 00:50:14;;;;;;;52.92;25.00;;;;;;;;;;5110950;27;20505;-45
2022/03/21 00:52:41;;;;;;;44.72;21.67;;;;;;;;;;5100690;28;20028;-45
2022/03/21 00:55:09;;;;;;;42.42;19.10;;;;;;;;;;5115238;27;20034;-46
2022/03/21 00:57:35;;;;;;;50.80;22.60;;;;;;;;;;5111221;27;20023;-46
2022/03/21 01:00:01;;;;;;;46.47;21.85;;;;;;;;;;5112818;27;20419;-48
2022/03/21 01:02:27;;;;;;;46.88;20.95;;;;;;;;;;5108275;28;20531;-46
2022/03/21 01:04:53;;;;;;;37.42;17.38;;;;;;;;;;5126609;27;20031;-45
2022/03/21 01:07:19;;;;;;;40.33;21.05;;;;;;;;;;5098764;27;20044;-44
2022/03/21 01:09:45;;;;;;;38.13;18.73;;;;;;;;;;5095457;28;20406;-45
2022/03/21 01:12:12;;;;;;;35.65;16.73;;;;;;;;;;5104062;28;20019;-46
2022/03/21 01:14:38;;;;;;;40.97;19.90;;;;;;;;;;5102084;27;20497;-45
2022/03/21 01:17:04;;;;;;;36.55;17.80;;;;;;;;;;5101563;27;20521;-44
2022/03/21 01:19:31;;;;;;;41.75;19.63;;;;;;;;;;5112144;27;20024;-45
2022/03/21 01:22:00;;;;;;;33.05;17.10;;;;;;;;;;5110804;27;20035;-45
2022/03/21 01:24:27;;;;;;;34.13;16.20;;;;;;;;;;5111533;27;20118;-44
2022/03/21 01:26:53;;;;;;;38.10;18.48;;;;;;;;;;5121035;27;20012;-44
2022/03/21 01:29:19;;;;;;;39.17;18.63;;;;;;;;;;5104118;28;20031;-44
2022/03/21 01:31:45;;;;;;;36.20;17.77;;;;;;;;;;5103079;27;20168;-44
2022/03/21 01:34:11;;;;;;;43.85;20.40;;;;;;;;;;5094247;28;20396;-45
2022/03/21 01:36:37;;;;;;;40.90;19.17;;;;;;;;;;5110199;27;20131;-44
2022/03/21 01:39:04;;;;;;;46.03;21.85;;;;;;;;;;5103041;28;20062;-44
2022/03/21 01:41:30;;;;;;;64.45;33.42;;;;;;;;;;5110035;28;20024;-44
2022/03/21 01:44:03;;;;;;;46.15;22.98;;;;;;;;;;5113758;27;20527;-46
2022/03/21 01:46:30;;;;;;;39.88;18.33;;;;;;;;;;5108507;27;20035;-45
2022/03/21 01:48:56;;;;;;;36.05;17.90;;;;;;;;;;5115299;27;20044;-45
2022/03/21 01:51:23;;;;;;;47.33;21.08;;;;;;;;;;5120483;27;20160;-43
2022/03/21 01:56:34;;;;;;;37.60;17.30;;;;;;;;;;5108651;27;20073;-45
2022/03/21 01:59:01;;;;;;;35.92;16.80;;;;;;;;;;5113058;27;20399;-46
2022/03/21 02:01:27;;;;;;;32.08;15.15;;;;;;;;;;5115539;27;20031;-46
2022/03/21 02:03:53;;;;;;;41.58;18.08;;;;;;;;;;5099275;27;20080;-45
2022/03/21 02:06:21;;;;;;;32.75;16.48;;;;;;;;;;5111099;28;20031;-44
2022/03/21 02:08:48;;;;;;;32.38;15.98;;;;;;;;;;5110170;28;20071;-45
2022/03/21 02:11:15;;;;;;;40.58;18.77;;;;;;;;;;5115616;28;20027;-46
2022/03/21 02:13:41;;;;;;;37.47;17.38;;;;;;;;;;5134366;27;20114;-46
2022/03/21 02:16:08;;;;;;;41.72;19.90;;;;;;;;;;5134347;28;20381;-45
2022/03/21 02:18:36;;;;;;;42.92;18.23;;;;;;;;;;5134106;28;20027;-46
2022/03/21 02:21:03;;;;;;;43.20;20.77;;;;;;;;;;5130857;28;20024;-45
2022/03/21 02:23:42;;;;;;;36.35;16.52;;;;;;;;;;5112467;28;20073;-46
2022/03/21 02:26:09;;;;;;;40.15;19.40;;;;;;;;;;5116679;28;20475;-46
2022/03/21 02:28:37;;;;;;;46.03;22.42;;;;;;;;;;5117979;28;20035;-45
2022/03/21 02:31:04;;;;;;;48.70;22.00;;;;;;;;;;5117808;28;20032;-45
2022/03/21 02:33:32;;;;;;;48.80;22.58;;;;;;;;;;5117445;28;20024;-46
2022/03/21 02:35:59;;;;;;;50.35;23.30;;;;;;;;;;5117882;28;20056;-46
2022/03/21 02:38:29;;;;;;;52.45;22.17;;;;;;;;;;5117764;28;20024;-45
2022/03/21 02:40:56;;;;;;;45.72;21.10;;;;;;;;;;5117732;28;20378;-42
2022/03/21 02:43:24;;;;;;;47.15;20.65;;;;;;;;;;5117596;28;20022;-46
2022/03/21 02:45:50;;;;;;;49.97;22.40;;;;;;;;;;5117703;28;20030;-41
2022/03/21 02:48:18;;;;;;;47.08;22.80;;;;;;;;;;5117412;28;20088;-41
2022/03/21 02:50:57;;;;;;;49.65;21.80;;;;;;;;;;5117455;28;20031;-42
2022/03/21 02:53:23;;;;;;;60.88;26.88;;;;;;;;;;5117543;28;20380;-41
2022/03/21 02:55:53;;;;;;;71.05;31.90;;;;;;;;;;5117348;28;20016;-42
2022/03/21 02:58:22;;;;;;;67.65;29.50;;;;;;;;;;5117413;28;20069;-42
2022/03/21 03:00:48;;;;;;;69.60;29.95;;;;;;;;;;5117303;28;20022;-41
2022/03/21 03:03:14;;;;;;;74.93;30.83;;;;;;;;;;5117342;28;20055;-41
2022/03/21 03:05:40;;;;;;;75.47;29.92;;;;;;;;;;5117290;28;20383;-44
2022/03/21 03:08:07;;;;;;;82.07;33.22;;;;;;;;;;5117198;28;20019;-41
2022/03/21 03:10:33;;;;;;;92.57;37.10;;;;;;;;;;5117033;28;20471;-41
2022/03/21 03:12:59;;;;;;;103.70;40.35;;;;;;;;;;5116924;28;20070;-42
2022/03/21 03:15:25;;;;;;;100.85;38.72;;;;;;;;;;5117237;28;20047;-42
2022/03/21 03:17:51;;;;;;;91.57;37.58;;;;;;;;;;5117027;28;20023;-44
2022/03/21 03:20:17;;;;;;;82.78;37.67;;;;;;;;;;5117064;28;20078;-44
2022/03/21 03:22:44;;;;;;;86.78;34.10;;;;;;;;;;5116873;28;20016;-42
2022/03/21 03:25:15;;;;;;;75.35;31.17;;;;;;;;;;5116943;28;20024;-42
2022/03/21 03:27:41;;;;;;;85.78;34.67;;;;;;;;;;5098510;28;20084;-42
2022/03/21 03:30:08;;;;;;;115.60;45.17;;;;;;;;;;5117011;28;20106;-42
2022/03/21 03:32:34;;;;;;;123.18;46.78;;;;;;;;;;5116910;28;20429;-42
2022/03/21 03:35:02;;;;;;;129.52;51.83;;;;;;;;;;5116689;28;20054;-43
2022/03/21 03:37:31;;;;;;;136.93;51.22;;;;;;;;;;5115300;28;20024;-41
2022/03/21 03:39:57;;;;;;;114.47;44.97;;;;;;;;;;5116584;28;20027;-42
2022/03/21 03:42:27;;;;;;;96.32;41.25;;;;;;;;;;5116462;28;20475;-43
2022/03/21 03:44:53;;;;;;;78.15;33.25;;;;;;;;;;5116422;28;20497;-42
2022/03/21 03:47:19;;;;;;;58.13;24.83;;;;;;;;;;5116450;28;20102;-42
2022/03/21 03:49:45;;;;;;;50.17;19.95;;;;;;;;;;5098054;28;20047;-44
2022/03/21 03:52:11;;;;;;;35.53;15.60;;;;;;;;;;5116334;28;20051;-45
2022/03/21 03:54:37;;;;;;;31.98;14.77;;;;;;;;;;5116323;28;20045;-45
2022/03/21 03:57:04;;;;;;;30.95;15.07;;;;;;;;;;5116081;28;20061;-44
2022/03/21 03:59:30;;;;;;;33.60;15.00;;;;;;;;;;5097898;28;20032;-45
2022/03/21 04:01:58;;;;;;;33.55;15.70;;;;;;;;;;5116229;28;20092;-46
2022/03/21 04:04:29;;;;;;;33.15;15.18;;;;;;;;;;5116099;28;20023;-45
2022/03/21 04:06:55;;;;;;;30.05;14.90;;;;;;;;;;5116058;28;20036;-46
2022/03/21 04:09:21;;;;;;;31.75;15.18;;;;;;;;;;5115997;28;20027;-44
2022/03/21 04:11:47;;;;;;;31.27;13.73;;;;;;;;;;5115875;28;20043;-47
2022/03/21 04:14:15;;;;;;;32.53;13.95;;;;;;;;;;5115768;28;20031;-46
2022/03/21 04:16:44;;;;;;;30.83;13.90;;;;;;;;;;5115719;28;20139;-45
2022/03/21 04:19:10;;;;;;;29.63;13.35;;;;;;;;;;5115889;28;20479;-46
2022/03/21 04:21:36;;;;;;;28.25;13.23;;;;;;;;;;5115704;28;20024;-45
2022/03/21 04:24:04;;;;;;;33.10;14.45;;;;;;;;;;5115793;28;20092;-45
2022/03/21 04:26:31;;;;;;;30.67;14.73;;;;;;;;;;5115509;28;20020;-44
2022/03/21 04:28:57;;;;;;;28.48;13.95;;;;;;;;;;5115655;28;20375;-45
2022/03/21 04:31:23;;;;;;;32.17;13.48;;;;;;;;;;5115652;28;20027;-46
2022/03/21 04:33:49;;;;;;;32.75;14.30;;;;;;;;;;5115466;28;20066;-47
2022/03/21 04:36:15;;;;;;;36.65;15.20;;;;;;;;;;5115429;28;20032;-44
2022/03/21 04:38:41;;;;;;;32.95;15.05;;;;;;;;;;5115408;28;20024;-45
2022/03/21 04:41:08;;;;;;;36.75;14.75;;;;;;;;;;5115264;28;20016;-45
2022/03/21 04:43:34;;;;;;;36.88;13.02;;;;;;;;;;5115252;28;20019;-45
2022/03/21 04:46:00;;;;;;;27.63;13.23;;;;;;;;;;5115422;28;20023;-48
2022/03/21 04:48:26;;;;;;;30.35;13.35;;;;;;;;;;5114510;28;20044;-46
2022/03/21 04:50:55;;;;;;;27.35;13.73;;;;;;;;;;5115432;28;20069;-46
2022/03/21 04:53:21;;;;;;;31.42;13.55;;;;;;;;;;5115220;28;20023;-46
2022/03/21 04:55:47;;;;;;;29.55;13.98;;;;;;;;;;5115096;28;20390;-45
2022/03/21 04:58:13;;;;;;;31.35;13.90;;;;;;;;;;5115064;28;20024;-45
2022/03/21 05:00:39;;;;;;;26.80;13.10;;;;;;;;;;5115304;28;20024;-46
2022/03/21 05:03:08;;;;;;;24.52;12.40;;;;;;;;;;5114937;28;20055;-45
2022/03/21 05:05:35;;;;;;;26.25;12.40;;;;;;;;;;5115062;28;20123;-46
2022/03/21 05:08:02;;;;;;;31.33;13.32;;;;;;;;;;5114735;28;20099;-44
2022/03/21 05:10:28;;;;;;;42.80;16.52;;;;;;;;;;5096420;28;20024;-46
2022/03/21 05:12:55;;;;;;;43.90;18.13;;;;;;;;;;5114790;28;20518;-46
2022/03/21 05:15:21;;;;;;;29.25;14.38;;;;;;;;;;5114630;28;20471;-45
2022/03/21 05:17:47;;;;;;;32.85;14.93;;;;;;;;;;5114661;28;20020;-45
2022/03/21 05:20:17;;;;;;;31.40;15.25;;;;;;;;;;5114697;28;20056;-46
2022/03/21 05:31:09;;;;;;;35.85;16.13;;;;;;;;;;5114633;28;20026;-46
2022/03/21 05:36:30;;;;;;;42.05;18.38;;;;;;;;;;5114710;28;20154;-47
2022/03/21 05:38:57;;;;;;;43.05;20.30;;;;;;;;;;5114007;28;20023;-46
2022/03/21 05:41:23;;;;;;;50.78;20.40;;;;;;;;;;5114046;28;20024;-47
2022/03/21 05:43:52;;;;;;;40.83;18.90;;;;;;;;;;5114104;28;20098;-47
2022/03/21 05:46:19;;;;;;;43.70;19.83;;;;;;;;;;5114332;28;20069;-45
2022/03/21 05:48:51;;;;;;;39.28;18.38;;;;;;;;;;5113810;28;20360;-46
2022/03/21 05:51:23;;;;;;;39.15;17.25;;;;;;;;;;5114232;28;20095;-46
2022/03/21 05:53:50;;;;;;;33.25;15.98;;;;;;;;;;5114091;28;20054;-47
2022/03/21 05:56:16;;;;;;;27.15;14.73;;;;;;;;;;5113824;28;20019;-45
2022/03/21 05:58:43;;;;;;;28.77;14.70;;;;;;;;;;5113747;28;20023;-46
2022/03/21 06:01:11;;;;;;;21.55;13.45;;;;;;;;;;5113048;28;20035;-46
2022/03/21 06:03:38;;;;;;;26.33;13.52;;;;;;;;;;5113994;28;20027;-45
2022/03/21 06:06:07;;;;;;;21.63;13.25;;;;;;;;;;5113688;28;20019;-46
2022/03/21 06:08:33;;;;;;;25.67;14.68;;;;;;;;;;5113630;28;20028;-47
2022/03/21 06:11:07;;;;;;;25.17;13.23;;;;;;;;;;5113669;28;20020;-45
2022/03/21 06:13:35;;;;;;;25.90;14.07;;;;;;;;;;5113755;28;20054;-46
2022/03/21 06:16:03;;;;;;;34.97;17.42;;;;;;;;;;5095434;28;20035;-47
2022/03/21 06:18:29;;;;;;;43.33;20.08;;;;;;;;;;5113639;28;20458;-46
2022/03/21 06:20:55;;;;;;;36.15;20.08;;;;;;;;;;5113893;28;20092;-47
2022/03/21 06:23:21;;;;;;;30.38;16.98;;;;;;;;;;5113562;28;20024;-46
2022/03/21 06:25:48;;;;;;;23.60;12.77;;;;;;;;;;5113473;28;20028;-46
2022/03/21 06:28:14;;;;;;;35.15;19.45;;;;;;;;;;5113695;28;20015;-46
2022/03/21 06:30:42;;;;;;;31.20;17.17;;;;;;;;;;5113553;28;20034;-47
2022/03/21 06:33:09;;;;;;;42.50;23.23;;;;;;;;;;5113749;28;20500;-44
2022/03/21 06:35:35;;;;;;;39.10;21.60;;;;;;;;;;5111930;28;20032;-43
2022/03/21 06:38:01;;;;;;;24.65;14.57;;;;;;;;;;5092042;28;20051;-44
2022/03/21 06:40:27;;;;;;;32.58;16.70;;;;;;;;;;5091922;28;20012;-45
2022/03/21 06:42:53;;;;;;;23.33;13.40;;;;;;;;;;5092198;28;20016;-44
2022/03/21 06:45:19;;;;;;;26.02;13.93;;;;;;;;;;5092116;28;20028;-45
2022/03/21 06:47:46;;;;;;;27.70;15.52;;;;;;;;;;5094312;28;20012;-45
2022/03/21 06:50:12;;;;;;;24.30;13.35;;;;;;;;;;5101574;28;20024;-44
2022/03/21 06:52:39;;;;;;;18.77;11.48;;;;;;;;;;5102148;28;20016;-46
2022/03/21 06:55:10;;;;;;;23.05;14.48;;;;;;;;;;5102900;28;20387;-45
2022/03/21 06:57:36;;;;;;;23.38;13.20;;;;;;;;;;5104663;28;20099;-44
2022/03/21 07:00:03;;;;;;;22.02;13.45;;;;;;;;;;5113056;28;20027;-44
2022/03/21 07:02:29;;;;;;;22.50;13.50;;;;;;;;;;5113189;28;20022;-46
2022/03/21 07:04:56;;;;;;;22.20;13.00;;;;;;;;;;5113380;28;20024;-47
2022/03/21 07:07:22;;;;;;;24.17;13.93;;;;;;;;;;5113342;28;20360;-45
2022/03/21 07:09:48;;;;;;;25.02;12.80;;;;;;;;;;5094902;28;20031;-44
2022/03/21 07:12:14;;;;;;;24.70;13.45;;;;;;;;;;5116079;28;20421;-45
2022/03/21 07:14:40;;;;;;;27.45;14.00;;;;;;;;;;5117043;28;20031;-44
2022/03/21 07:17:06;;;;;;;28.48;14.88;;;;;;;;;;5116755;28;20051;-43
2022/03/21 07:19:33;;;;;;;27.45;13.88;;;;;;;;;;5117071;28;20032;-44
2022/03/21 07:22:00;;;;;;;25.48;15.43;;;;;;;;;;5117114;28;20523;-43
2022/03/21 07:24:26;;;;;;;24.27;13.88;;;;;;;;;;5116876;28;20105;-42
2022/03/21 07:26:52;;;;;;;32.10;17.35;;;;;;;;;;5116762;28;20020;-45
2022/03/21 07:29:19;;;;;;;28.20;14.23;;;;;;;;;;5116715;28;20023;-45
2022/03/21 07:31:45;;;;;;;57.40;27.05;;;;;;;;;;5116669;28;20051;-43
2022/03/21 07:34:12;;;;;;;40.67;22.48;;;;;;;;;;5116584;28;20031;-46
2022/03/21 07:36:38;;;;;;;39.75;19.52;;;;;;;;;;5116741;28;20471;-45
2022/03/21 07:39:04;;;;;;;32.38;17.67;;;;;;;;;;5097444;28;20039;-45
2022/03/21 07:41:30;;;;;;;34.45;18.58;;;;;;;;;;5116461;28;20051;-44
2022/03/21 07:43:57;;;;;;;24.23;13.60;;;;;;;;;;5116545;28;20019;-44
2022/03/21 07:49:08;;;;;;;23.50;13.50;;;;;;;;;;5116299;28;20086;-44
2022/03/21 07:51:35;;;;;;;22.92;14.00;;;;;;;;;;5116256;28;20505;-41
2022/03/21 07:54:02;;;;;;;26.90;13.77;;;;;;;;;;5115805;28;20027;-43
2022/03/21 07:56:28;;;;;;;33.40;18.42;;;;;;;;;;5097396;28;20031;-43
2022/03/21 07:58:54;;;;;;;58.17;30.15;;;;;;;;;;5115938;28;20024;-44
2022/03/21 08:01:20;;;;;;;48.40;24.77;;;;;;;;;;5097015;28;20035;-43
2022/03/21 08:03:46;;;;;;;33.80;18.48;;;;;;;;;;5116373;28;20092;-43
2022/03/21 08:06:13;;;;;;;28.05;15.35;;;;;;;;;;5116139;28;20043;-45
2022/03/21 08:08:39;;;;;;;32.67;19.75;;;;;;;;;;5097677;28;20036;-44
2022/03/21 08:11:05;;;;;;;36.95;20.98;;;;;;;;;;5116070;28;20020;-46
2022/03/21 08:13:32;;;;;;;38.03;21.40;;;;;;;;;;5115782;28;20030;-45
2022/03/21 08:16:00;;;;;;;22.67;14.30;;;;;;;;;;5115820;28;20028;-45
2022/03/21 08:18:26;;;;;;;28.95;16.38;;;;;;;;;;5115461;28;20028;-44
2022/03/21 08:20:52;;;;;;;25.25;14.43;;;;;;;;;;5115744;28;20031;-45
2022/03/21 08:23:18;;;;;;;25.75;14.52;;;;;;;;;;5115003;28;20099;-43
2022/03/21 08:25:48;;;;;;;19.60;12.82;;;;;;;;;;5115674;28;20028;-42
2022/03/21 08:28:14;;;;;;;18.88;12.20;;;;;;;;;;5115671;28;20012;-43
2022/03/21 08:30:41;;;;;;;20.98;13.00;;;;;;;;;;5115836;28;20375;-43
2022/03/21 08:33:08;;;;;;;19.40;11.60;;;;;;;;;;5115761;28;20023;-43
2022/03/21 08:35:36;;;;;;;18.02;12.48;;;;;;;;;;5115421;28;20027;-45
2022/03/21 08:38:03;;;;;;;25.98;14.75;;;;;;;;;;5115345;28;20111;-45
2022/03/21 08:40:31;;;;;;;46.92;23.27;;;;;;;;;;5115387;28;20115;-46
2022/03/21 08:42:57;;;;;;;72.85;34.22;;;;;;;;;;5115267;28;20044;-45
2022/03/21 08:45:23;;;;;;;45.50;24.50;;;;;;;;;;5115318;28;20459;-47
2022/03/21 08:47:53;;;;;;;56.58;28.65;;;;;;;;;;5115060;28;20044;-43
2022/03/21 08:50:19;;;;;;;32.83;17.90;;;;;;;;;;5115123;28;20098;-48
2022/03/21 08:52:48;;;;;;;24.42;13.98;;;;;;;;;;5115516;28;20467;-42
2022/03/21 08:55:14;;;;;;;40.70;21.98;;;;;;;;;;5115046;28;20411;-44
2022/03/21 08:57:40;;;;;;;23.38;14.43;;;;;;;;;;5114886;28;20089;-41
2022/03/21 09:00:07;;;;;;;42.35;23.45;;;;;;;;;;5115278;28;20498;-48
2022/03/21 09:02:34;;;;;;;40.25;22.55;;;;;;;;;;5115139;28;20046;-43
2022/03/21 09:05:00;;;;;;;21.83;13.90;;;;;;;;;;5114960;28;20027;-43
2022/03/21 09:07:28;;;;;;;30.65;19.05;;;;;;;;;;5114914;28;20440;-44
2022/03/21 09:09:55;;;;;;;30.30;17.27;;;;;;;;;;5114766;28;20501;-41
2022/03/21 09:12:22;;;;;;;26.95;13.70;;;;;;;;;;5114611;28;20151;-41
2022/03/21 09:14:48;;;;;;;24.30;15.10;;;;;;;;;;5114722;28;20463;-41
2022/03/21 09:17:14;;;;;;;26.35;15.13;;;;;;;;;;5114452;28;20056;-43
2022/03/21 09:19:41;;;;;;;32.30;18.88;;;;;;;;;;5114595;28;20549;-48
2022/03/21 09:22:07;;;;;;;35.90;18.15;;;;;;;;;;5114624;28;20416;-42
2022/03/21 09:24:34;;;;;;;18.02;11.07;;;;;;;;;;5114353;28;20027;-48
2022/03/21 09:27:00;;;;;;;27.50;16.17;;;;;;;;;;5114427;28;20380;-42
2022/03/21 09:29:26;;;;;;;22.75;13.38;;;;;;;;;;5114435;28;20024;-42
2022/03/21 09:31:56;;;;;;;33.63;17.52;;;;;;;;;;5114785;28;20028;-43
2022/03/21 09:34:24;;;;;;;34.90;21.75;;;;;;;;;;5114108;28;20037;-43
2022/03/21 09:36:51;;;;;;;52.05;29.17;;;;;;;;;;5114187;28;20041;-44
2022/03/21 09:39:17;;;;;;;35.97;20.45;;;;;;;;;;5114418;28;20103;-44
2022/03/21 09:41:44;;;;;;;38.38;21.90;;;;;;;;;;5114204;28;20027;-43
2022/03/21 09:44:14;;;;;;;41.58;22.63;;;;;;;;;;5114514;28;20054;-43
2022/03/21 09:46:42;;;;;;;24.98;14.15;;;;;;;;;;5113869;28;20490;-41
2022/03/21 09:49:10;;;;;;;33.70;19.08;;;;;;;;;;5114068;28;20142;-40
2022/03/21 09:51:37;;;;;;;22.40;12.68;;;;;;;;;;5114236;28;20024;-40
2022/03/21 09:54:03;;;;;;;22.25;13.25;;;;;;;;;;5113968;28;20020;-44
2022/03/21 09:56:30;;;;;;;26.83;14.45;;;;;;;;;;5113930;28;20034;-44
2022/03/21 09:58:59;;;;;;;63.53;32.95;;;;;;;;;;5114330;28;20072;-44
2022/03/21 10:01:26;;;;;;;27.00;16.08;;;;;;;;;;5114377;28;20051;-46
2022/03/21 10:03:52;;;;;;;39.00;20.17;;;;;;;;;;5114047;28;20443;-44
2022/03/21 10:06:33;;;;;;;26.75;15.10;;;;;;;;;;5094489;28;20460;-42
2022/03/21 10:09:10;;;;;;;21.70;12.82;;;;;;;;;;5093370;28;20043;-41
2022/03/21 10:11:36;;;;;;;16.10;9.98;;;;;;;;;;5093659;28;20024;-44
2022/03/21 10:14:24;;;;;;;30.92;17.05;;;;;;;;;;5093410;28;20020;-42
2022/03/21 10:16:51;;;;;;;19.42;10.18;;;;;;;;;;5093484;28;20111;-41
2022/03/21 10:19:17;;;;;;;15.38;9.75;;;;;;;;;;5092751;28;20024;-42
2022/03/21 10:21:59;;;;;;;26.95;13.45;;;;;;;;;;5093208;28;20020;-42
2022/03/21 10:24:25;;;;;;;28.40;13.45;;;;;;;;;;5093762;28;20020;-41
2022/03/21 10:26:51;;;;;;;30.05;16.75;;;;;;;;;;5093513;28;20048;-40
2022/03/21 10:29:17;;;;;;;14.98;8.73;;;;;;;;;;5092604;28;20024;-42
2022/03/21 10:31:45;;;;;;;14.88;8.50;;;;;;;;;;5091894;28;20034;-40
2022/03/21 10:34:18;;;;;;;16.02;8.48;;;;;;;;;;5092796;28;20016;-39
2022/03/21 10:37:03;;;;;;;17.35;9.82;;;;;;;;;;5072402;28;20032;-39
2022/03/21 10:39:30;;;;;;;14.77;8.98;;;;;;;;;;5072569;28;20031;-37
2022/03/21 10:42:03;;;;;;;38.95;25.58;;;;;;;;;;5072859;28;20016;-41
2022/03/21 10:44:30;;;;;;;14.85;8.77;;;;;;;;;;5072646;28;20445;-41
2022/03/21 10:46:58;;;;;;;13.63;8.05;;;;;;;;;;5075469;28;20033;-39
2022/03/21 10:49:29;;;;;;;14.35;8.52;;;;;;;;;;5076889;28;20072;-40
2022/03/21 10:51:55;;;;;;;13.98;8.45;;;;;;;;;;5077008;28;20077;-40
2022/03/21 10:54:39;;;;;;;13.20;7.90;;;;;;;;;;5076729;28;20040;-40
2022/03/21 10:57:07;;;;;;;15.20;9.25;;;;;;;;;;5076694;28;20032;-42
2022/03/21 10:59:34;;;;;;;14.00;8.98;;;;;;;;;;5076792;28;20372;-43
2022/03/21 11:02:17;;;;;;;11.25;8.55;;;;;;;;;;5076505;28;20479;-42
2022/03/21 11:04:44;;;;;;;12.40;7.45;;;;;;;;;;5079966;28;20031;-40
2022/03/21 11:07:14;;;;;;;14.77;8.57;;;;;;;;;;5096822;28;20072;-42
2022/03/21 11:09:41;;;;;;;16.02;9.95;;;;;;;;;;5096851;28;20028;-42
2022/03/21 11:12:08;;;;;;;20.10;10.45;;;;;;;;;;5096609;28;20020;-42
2022/03/21 11:14:38;;;;;;;45.20;19.90;;;;;;;;;;5096875;28;20028;-40
2022/03/21 11:17:07;;;;;;;17.83;9.90;;;;;;;;;;5078822;28;20361;-42
2022/03/21 11:19:34;;;;;;;16.52;10.20;;;;;;;;;;5096575;28;20032;-40
2022/03/21 11:22:00;;;;;;;14.85;8.60;;;;;;;;;;5096013;28;20020;-41
2022/03/21 11:24:27;;;;;;;16.50;9.95;;;;;;;;;;5095775;28;20074;-42
2022/03/21 11:26:59;;;;;;;26.15;14.73;;;;;;;;;;5108380;28;20076;-42
2022/03/21 11:29:43;;;;;;;26.80;15.23;;;;;;;;;;5116870;28;20428;-42
2022/03/21 11:32:26;;;;;;;39.17;21.08;;;;;;;;;;5116901;28;20028;-43
2022/03/21 11:35:22;;;;;;;19.25;10.43;;;;;;;;;;5111580;28;20513;-43
2022/03/21 11:37:48;;;;;;;16.23;8.43;;;;;;;;;;5014391;28;20034;-42
2022/03/21 11:40:26;;;;;;;13.13;7.43;;;;;;;;;;5014163;28;20037;-41
2022/03/21 11:42:53;;;;;;;14.95;8.07;;;;;;;;;;5013820;28;20120;-40
2022/03/21 11:45:25;;;;;;;15.43;9.10;;;;;;;;;;5013605;28;20026;-40
2022/03/21 11:47:51;;;;;;;12.55;7.68;;;;;;;;;;5013830;28;20088;-39
2022/03/21 11:50:27;;;;;;;16.05;8.15;;;;;;;;;;5014146;28;20052;-40
2022/03/21 11:53:09;;;;;;;11.35;7.50;;;;;;;;;;5026293;28;20026;-41
2022/03/21 11:55:40;;;;;;;10.90;7.13;;;;;;;;;;5033665;28;20513;-41
2022/03/21 11:58:25;;;;;;;15.25;8.60;;;;;;;;;;5016362;28;20031;-41
2022/03/21 12:01:04;;;;;;;14.07;8.45;;;;;;;;;;5033670;28;20059;-43
2022/03/21 12:03:30;;;;;;;12.05;7.85;;;;;;;;;;5033538;28;20033;-43
2022/03/21 12:05:56;;;;;;;16.02;9.25;;;;;;;;;;5033745;28;20036;-43
2022/03/21 12:08:38;;;;;;;13.65;7.75;;;;;;;;;;5016154;28;20116;-42
2022/03/21 12:11:04;;;;;;;21.30;12.23;;;;;;;;;;5033330;28;20041;-40
2022/03/21 12:13:53;;;;;;;14.38;8.40;;;;;;;;;;5043545;28;20036;-42
2022/03/21 12:16:20;;;;;;;13.18;8.13;;;;;;;;;;5095592;28;20537;-42
2022/03/21 12:18:58;;;;;;;12.55;7.88;;;;;;;;;;5095622;28;20020;-41
2022/03/21 12:21:24;;;;;;;13.68;7.97;;;;;;;;;;5095661;28;20024;-44
2022/03/21 12:24:10;;;;;;;13.23;8.45;;;;;;;;;;5095627;28;20024;-44
2022/03/21 12:26:37;;;;;;;10.63;6.72;;;;;;;;;;5095238;28;20434;-42
2022/03/21 12:31:48;;;;;;;12.05;7.70;;;;;;;;;;5095682;28;20461;-42
2022/03/21 12:34:33;;;;;;;14.82;8.23;;;;;;;;;;5095454;28;20043;-41
2022/03/21 12:37:06;;;;;;;12.50;8.07;;;;;;;;;;5095502;28;20074;-41
2022/03/21 12:39:33;;;;;;;13.27;8.65;;;;;;;;;;5095130;28;20047;-42
2022/03/21 12:42:00;;;;;;;17.63;9.10;;;;;;;;;;5095163;28;20022;-41
2022/03/21 12:44:26;;;;;;;12.45;7.38;;;;;;;;;;5094738;28;20016;-42
2022/03/21 12:46:59;;;;;;;12.55;7.50;;;;;;;;;;5094874;28;20039;-42
2022/03/21 12:49:25;;;;;;;13.23;6.97;;;;;;;;;;5111306;28;20051;-42
2022/03/21 12:51:57;;;;;;;14.75;8.82;;;;;;;;;;5115219;28;20023;-42
2022/03/21 12:54:26;;;;;;;18.33;10.60;;;;;;;;;;5096903;28;20410;-46
2022/03/21 12:57:04;;;;;;;15.25;8.98;;;;;;;;;;5115103;28;20019;-41
2022/03/21 12:59:30;;;;;;;13.77;7.75;;;;;;;;;;5115434;28;20024;-40
2022/03/21 13:01:56;;;;;;;11.95;8.10;;;;;;;;;;5115103;28;20027;-41
2022/03/21 13:12:40;;;;;;;17.00;9.30;;;;;;;;;;5115148;28;20080;-41
2022/03/21 13:15:10;;;;;;;9.98;6.93;;;;;;;;;;5114672;28;20028;-41
2022/03/21 13:17:49;;;;;;;15.00;8.77;;;;;;;;;;5114977;28;20098;-41
2022/03/21 13:20:19;;;;;;;12.15;7.93;;;;;;;;;;5115272;28;20463;-41
2022/03/21 13:22:46;;;;;;;12.82;7.90;;;;;;;;;;5114642;28;20012;-40
2022/03/21 13:25:25;;;;;;;14.82;9.38;;;;;;;;;;5114629;28;20028;-40
2022/03/21 13:27:56;;;;;;;12.88;7.88;;;;;;;;;;5114606;28;20020;-41
2022/03/21 13:30:22;;;;;;;16.98;8.30;;;;;;;;;;5114644;28;20085;-40
2022/03/21 13:32:48;;;;;;;13.13;8.48;;;;;;;;;;5114514;28;20568;-41
2022/03/21 13:35:14;;;;;;;16.70;8.32;;;;;;;;;;5114575;28;20123;-41
2022/03/21 13:37:43;;;;;;;12.45;7.55;;;;;;;;;;5114591;28;20020;-40
2022/03/21 13:40:11;;;;;;;13.52;9.43;;;;;;;;;;5114579;28;20048;-41
2022/03/21 13:42:37;;;;;;;13.75;8.13;;;;;;;;;;5114222;28;20024;-41
2022/03/21 13:45:05;;;;;;;11.90;8.05;;;;;;;;;;5114275;28;20073;-41
2022/03/21 13:47:32;;;;;;;13.18;8.52;;;;;;;;;;5114261;28;20015;-43
2022/03/21 13:50:03;;;;;;;13.43;8.10;;;;;;;;;;5114172;28;20039;-41
2022/03/21 13:52:43;;;;;;;13.98;8.88;;;;;;;;;;5114648;28;20024;-42
2022/03/21 13:55:10;;;;;;;14.05;8.80;;;;;;;;;;5114150;28;20084;-42
2022/03/21 13:57:43;;;;;;;11.95;7.78;;;;;;;;;;5114052;28;20030;-41
2022/03/21 14:00:12;;;;;;;13.85;7.93;;;;;;;;;;5113967;28;20026;-42
2022/03/21 14:02:45;;;;;;;16.27;9.27;;;;;;;;;;5114377;28;20024;-42
2022/03/21 14:05:13;;;;;;;14.65;8.98;;;;;;;;;;5114199;28;20024;-42
2022/03/21 14:07:39;;;;;;;18.00;10.38;;;;;;;;;;5114231;28;20047;-41
2022/03/21 14:10:15;;;;;;;13.85;8.20;;;;;;;;;;5113968;28;20034;-42
2022/03/21 14:12:42;;;;;;;14.80;8.48;;;;;;;;;;5113826;28;20019;-41
2022/03/21 14:15:08;;;;;;;15.32;8.23;;;;;;;;;;5114068;28;20433;-41
2022/03/21 14:17:34;;;;;;;12.63;8.07;;;;;;;;;;5113983;28;20024;-41
2022/03/21 14:20:00;;;;;;;16.17;9.50;;;;;;;;;;5113597;28;20028;-41
2022/03/21 14:22:26;;;;;;;17.20;9.82;;;;;;;;;;5113471;28;20379;-43
2022/03/21 14:24:52;;;;;;;13.93;8.07;;;;;;;;;;5095304;28;20039;-44
2022/03/21 14:27:19;;;;;;;11.98;8.80;;;;;;;;;;5113917;28;20068;-43
2022/03/21 14:29:45;;;;;;;20.23;11.43;;;;;;;;;;5113603;28;20467;-43
2022/03/21 14:32:11;;;;;;;12.43;7.88;;;;;;;;;;5113872;28;20042;-42
2022/03/21 14:34:37;;;;;;;16.20;9.40;;;;;;;;;;5113564;28;20046;-44
2022/03/21 14:37:04;;;;;;;13.02;8.10;;;;;;;;;;5113627;28;20494;-43
2022/03/21 14:39:30;;;;;;;14.55;8.55;;;;;;;;;;5114038;28;20069;-41
2022/03/21 14:41:56;;;;;;;12.90;8.65;;;;;;;;;;5113489;28;20106;-43
2022/03/21 14:44:25;;;;;;;11.38;7.75;;;;;;;;;;5113523;28;20027;-43
2022/03/21 14:46:56;;;;;;;15.40;9.07;;;;;;;;;;5113346;28;20031;-42
2022/03/21 14:49:22;;;;;;;17.30;10.43;;;;;;;;;;5113302;28;20062;-42
2022/03/21 14:51:49;;;;;;;15.32;8.55;;;;;;;;;;5113631;28;20045;-42
2022/03/21 14:54:17;;;;;;;18.02;9.73;;;;;;;;;;5102473;28;20024;-42